createdAt,value
2024-01-17T00:00:41.044Z,97667.59
2024-01-17T00:05:42.907Z,97658.06
2024-01-17T00:10:44.709Z,97652.94
2024-01-17T00:15:46.515Z,97641.91
2024-01-17T00:20:48.523Z,97648.66
2024-01-17T00:25:50.400Z,97629.00
2024-01-17T00:30:52.342Z,97642.81
2024-01-17T00:35:54.467Z,97625.38
2024-01-17T00:40:56.546Z,97631.41
2024-01-17T00:45:58.349Z,97629.13
2024-01-17T00:51:00.400Z,97638.59
2024-01-17T00:56:02.371Z,97655.81
2024-01-17T01:01:04.411Z,97635.09
2024-01-17T01:06:06.561Z,97647.81
2024-01-17T01:11:08.977Z,97639.75
2024-01-17T01:16:11.530Z,97645.84
2024-01-17T01:21:13.535Z,97637.34
2024-01-17T01:26:15.897Z,97632.00
2024-01-17T01:31:17.601Z,97614.63
2024-01-17T01:36:19.299Z,97593.56
2024-01-17T01:41:21.387Z,97597.97
2024-01-17T01:46:29.018Z,97591.53
2024-01-17T01:51:30.836Z,97593.84
2024-01-17T01:56:36.402Z,97586.06
2024-01-17T02:01:38.408Z,97568.03
2024-01-17T02:06:41.556Z,97553.22
2024-01-17T02:11:43.663Z,97529.97
2024-01-17T02:16:45.868Z,97546.47
2024-01-17T02:21:48.001Z,97558.50
2024-01-17T02:26:49.921Z,97566.16
2024-01-17T02:31:52.543Z,97557.34
2024-01-17T02:36:54.536Z,97554.56
2024-01-17T02:41:56.365Z,97531.50
2024-01-17T02:46:58.221Z,97528.38
2024-01-17T02:51:59.975Z,97536.03
2024-01-17T02:57:01.998Z,97552.56
2024-01-17T03:02:04.027Z,97527.13
2024-01-17T03:07:05.892Z,97525.78
2024-01-17T03:12:07.914Z,97483.97
2024-01-17T03:17:09.854Z,97500.41
2024-01-17T03:22:11.706Z,97484.56
2024-01-17T03:27:14.645Z,97483.06
2024-01-17T03:32:16.663Z,97470.63
2024-01-17T03:37:19.879Z,97467.09
2024-01-17T03:42:21.762Z,97448.38
2024-01-17T03:47:23.763Z,97427.69
2024-01-17T03:52:25.493Z,97460.56
2024-01-17T03:57:29.045Z,97461.06
2024-01-17T04:02:31.072Z,97454.94
2024-01-17T04:07:32.985Z,97440.25
2024-01-17T04:12:34.670Z,97443.38
2024-01-17T04:17:37.285Z,97428.22
2024-01-17T04:22:39.354Z,97432.63
2024-01-17T04:27:41.193Z,97413.47
2024-01-17T04:32:43.259Z,97392.72
2024-01-17T04:37:45.203Z,97386.97
2024-01-17T04:42:50.343Z,97397.22
2024-01-17T04:47:52.480Z,97385.00
2024-01-17T04:52:54.359Z,97374.22
2024-01-17T04:57:56.219Z,97389.09
2024-01-17T05:02:57.986Z,97388.56
2024-01-17T05:07:59.845Z,97389.66
2024-01-17T05:13:01.917Z,97392.19
2024-01-17T05:18:08.425Z,97382.53
2024-01-17T05:23:10.416Z,97383.63
2024-01-17T05:28:12.203Z,97373.81
2024-01-17T05:33:15.140Z,97391.41
2024-01-17T05:38:17.211Z,97380.06
2024-01-17T05:43:18.979Z,97380.31
2024-01-17T05:48:20.989Z,97377.69
2024-01-17T05:53:23.035Z,97374.78
2024-01-17T05:58:24.779Z,97370.94
2024-01-17T06:03:26.733Z,97365.19
2024-01-17T06:08:29.677Z,97367.94
2024-01-17T06:13:31.688Z,97359.41
2024-01-17T06:18:33.870Z,97334.38
2024-01-17T06:23:36.054Z,97327.31
2024-01-17T06:28:37.863Z,97324.53
2024-01-17T06:33:40.808Z,97326.66
2024-01-17T06:38:42.881Z,97327.44
2024-01-17T06:43:46.288Z,97329.16
2024-01-17T06:48:49.082Z,97310.16
2024-01-17T06:53:51.250Z,97316.31
2024-01-17T06:58:53.189Z,97314.41
2024-01-17T07:03:55.207Z,97314.66
2024-01-17T07:08:57.253Z,97314.09
2024-01-17T07:13:59.092Z,97310.34
2024-01-17T07:19:01.622Z,97301.06
2024-01-17T07:24:03.735Z,97304.63
2024-01-17T07:29:06.357Z,97302.00
2024-01-17T07:34:08.448Z,97287.88
2024-01-17T07:39:12.473Z,97287.34
2024-01-17T07:44:15.421Z,97277.63
2024-01-17T07:49:17.537Z,97278.78
2024-01-17T07:54:19.657Z,97283.25
2024-01-17T07:59:22.084Z,97290.22
2024-01-17T08:04:24.451Z,97290.84
2024-01-17T08:09:29.730Z,97270.38
2024-01-17T08:14:31.750Z,97249.75
2024-01-17T08:19:34.886Z,97243.66
2024-01-17T08:24:36.893Z,97238.53
2024-01-17T08:29:38.734Z,97234.69
2024-01-17T08:34:40.565Z,97239.81
2024-01-17T08:39:45.372Z,97227.53
2024-01-17T08:44:47.271Z,97231.72
2024-01-17T08:49:49.393Z,97223.25
2024-01-17T08:54:51.318Z,97213.94
2024-01-17T08:59:53.378Z,97222.00
2024-01-17T09:04:55.344Z,97204.22
2024-01-17T09:09:58.028Z,97200.53
2024-01-17T09:15:00.494Z,97190.81
2024-01-17T09:20:05.765Z,97163.84
2024-01-17T09:25:09.550Z,97146.13
2024-01-17T09:30:11.867Z,97170.78
2024-01-17T09:35:14.062Z,97162.19
2024-01-17T09:40:16.230Z,97162.75
2024-01-17T09:45:19.569Z,97150.47
2024-01-17T09:50:21.609Z,97127.75
2024-01-17T09:55:25.215Z,97121.88
2024-01-17T10:00:28.754Z,97101.53
2024-01-17T10:05:36.865Z,97085.63
2024-01-17T10:10:42.323Z,97047.47
2024-01-17T10:15:48.113Z,97039.34
2024-01-17T10:20:50.425Z,97040.63
2024-01-17T10:25:52.645Z,97018.47
2024-01-17T10:30:54.586Z,96995.75
2024-01-17T10:35:56.666Z,96983.44
2024-01-17T10:41:08.166Z,96981.72
2024-01-17T10:46:11.190Z,96978.75
2024-01-17T10:51:22.409Z,96953.53
2024-01-17T10:56:28.107Z,96940.09
2024-01-17T11:01:39.151Z,96947.84
2024-01-17T11:06:42.433Z,96920.72
2024-01-17T11:11:44.422Z,96896.97
2024-01-17T11:16:50.138Z,96897.09
2024-01-17T11:21:52.286Z,96894.84
2024-01-17T11:27:06.391Z,96875.31
2024-01-17T11:32:18.169Z,96872.59
2024-01-17T11:37:40.038Z,96860.94
2024-01-17T11:42:42.049Z,96862.53
2024-01-17T11:47:53.974Z,96838.19
2024-01-17T11:52:56.715Z,96831.44
2024-01-17T11:58:00.879Z,96824.31
2024-01-17T12:03:03.953Z,96820.47
2024-01-17T12:08:06.624Z,96802.34
2024-01-17T12:13:08.910Z,96783.72
2024-01-17T12:18:11.355Z,96799.63
2024-01-17T12:23:13.167Z,96781.81
2024-01-17T12:28:19.934Z,96777.81
2024-01-17T12:33:25.957Z,96756.44
2024-01-17T12:38:30.221Z,96759.84
2024-01-17T12:43:36.779Z,96755.75
2024-01-17T12:48:38.875Z,96748.44
2024-01-17T12:53:43.121Z,96740.88
2024-01-17T12:58:45.281Z,96735.91
2024-01-17T13:04:00.643Z,96727.16
2024-01-17T13:09:33.084Z,96721.38
2024-01-17T13:14:35.264Z,96709.28
2024-01-17T13:19:39.217Z,96711.53
2024-01-17T13:24:41.466Z,96709.31
2024-01-17T13:29:43.472Z,96712.63
2024-01-17T13:34:45.746Z,96698.16
2024-01-17T13:39:47.789Z,96683.75
2024-01-17T13:44:49.979Z,96666.28
2024-01-17T13:49:53.612Z,96666.28
2024-01-17T13:54:56.884Z,96656.41
2024-01-17T13:59:58.837Z,96664.06
2024-01-17T14:05:00.598Z,96653.66
2024-01-17T14:10:02.509Z,96654.75
2024-01-17T14:15:05.797Z,96647.53
2024-01-17T14:20:17.863Z,96657.47
2024-01-17T14:25:20.065Z,96652.50
2024-01-17T14:30:22.326Z,96649.66
2024-01-17T14:35:25.120Z,96637.88
2024-01-17T14:40:27.195Z,96637.38
2024-01-17T14:45:29.326Z,96617.31
2024-01-17T14:50:31.580Z,96608.13
2024-01-17T14:55:33.944Z,96606.13
2024-01-17T15:00:35.807Z,96595.97
2024-01-17T15:05:37.953Z,96583.53
2024-01-17T15:10:40.776Z,96588.88
2024-01-17T15:15:42.783Z,96577.28
2024-01-17T15:20:45.100Z,96582.41
2024-01-17T15:25:47.112Z,96583.94
2024-01-17T15:30:49.785Z,96577.56
2024-01-17T15:35:52.568Z,96580.53
2024-01-17T15:40:57.102Z,96584.53
2024-01-17T15:46:00.983Z,96590.94
2024-01-17T15:51:04.827Z,96572.97
2024-01-17T15:56:06.879Z,96563.72
2024-01-17T16:01:09.432Z,96570.78
2024-01-17T16:06:11.568Z,96563.94
2024-01-17T16:11:13.591Z,96554.78
2024-01-17T16:16:15.368Z,96563.91
2024-01-17T16:21:17.209Z,96567.38
2024-01-17T16:26:19.316Z,96557.41
2024-01-17T16:31:21.422Z,96572.50
2024-01-17T16:36:23.658Z,96566.47
2024-01-17T16:41:25.571Z,96554.78
2024-01-17T16:46:27.433Z,96558.25
2024-01-17T16:51:29.237Z,96543.22
2024-01-17T16:56:31.285Z,96544.94
2024-01-17T17:01:33.459Z,96560.59
2024-01-17T17:06:35.336Z,96540.94
2024-01-17T17:11:37.112Z,96552.16
2024-01-17T17:16:38.847Z,96558.19
2024-01-17T17:21:40.891Z,96560.22
2024-01-17T17:26:43.453Z,96558.97
2024-01-17T17:31:45.350Z,96560.72
2024-01-17T17:36:47.199Z,96553.34
2024-01-17T17:41:49.242Z,96539.72
2024-01-17T17:46:51.455Z,96525.63
2024-01-17T17:51:53.211Z,96537.25
2024-01-17T17:56:55.294Z,96505.34
2024-01-17T18:01:57.382Z,96510.72
2024-01-17T18:06:59.344Z,96512.59
2024-01-17T18:12:01.335Z,96505.50
2024-01-17T18:17:06.431Z,96496.31
2024-01-17T18:22:08.625Z,96505.53
2024-01-17T18:27:10.617Z,96511.72
2024-01-17T18:32:12.446Z,96505.88
2024-01-17T18:37:14.258Z,96495.34
2024-01-17T18:42:16.092Z,96485.94
2024-01-17T18:47:18.052Z,96482.59
2024-01-17T18:52:19.712Z,96479.59
2024-01-17T18:57:22.045Z,96472.28
2024-01-17T19:02:24.761Z,96479.22
2024-01-17T19:07:26.596Z,96478.91
2024-01-17T19:12:28.611Z,96467.13
2024-01-17T19:17:30.790Z,96458.53
2024-01-17T19:22:34.274Z,96437.72
2024-01-17T19:27:37.641Z,96435.38
2024-01-17T19:32:40.107Z,96437.19
2024-01-17T19:37:44.619Z,96435.38
2024-01-17T19:42:46.459Z,96422.31
2024-01-17T19:47:48.303Z,96418.13
2024-01-17T19:52:50.387Z,96419.09
2024-01-17T19:57:52.495Z,96409.75
2024-01-17T20:02:54.197Z,96403.13
2024-01-17T20:07:57.023Z,96395.47
2024-01-17T20:13:01.851Z,96406.59
2024-01-17T20:18:04.038Z,96397.84
2024-01-17T20:23:05.979Z,96388.25
2024-01-17T20:28:07.956Z,96410.19
2024-01-17T20:33:09.918Z,96393.78
2024-01-17T20:38:11.808Z,96377.44
2024-01-17T20:43:13.970Z,96375.47
2024-01-17T20:48:16.033Z,96356.78
2024-01-17T20:53:17.719Z,96362.56
2024-01-17T20:58:19.573Z,96346.69
2024-01-17T21:03:21.612Z,96338.63
2024-01-17T21:08:23.456Z,96323.38
2024-01-17T21:13:25.220Z,96330.50
2024-01-17T21:18:28.262Z,96312.19
2024-01-17T21:23:30.805Z,96318.41
2024-01-17T21:28:32.764Z,96309.56
2024-01-17T21:33:34.800Z,96292.13
2024-01-17T21:38:37.038Z,96295.13
2024-01-17T21:43:38.796Z,96276.63
2024-01-17T21:48:45.075Z,96274.38
2024-01-17T21:53:47.497Z,96280.53
2024-01-17T21:58:49.586Z,96262.38
2024-01-17T22:03:51.364Z,96247.94
2024-01-17T22:08:58.886Z,96223.38
2024-01-17T22:14:01.517Z,96227.91
2024-01-17T22:19:03.684Z,96216.25
2024-01-17T22:24:06.412Z,96214.91
2024-01-17T22:29:09.937Z,96187.41
2024-01-17T22:34:11.953Z,96189.94
2024-01-17T22:39:15.938Z,96183.72
2024-01-17T22:44:19.257Z,96192.31
2024-01-17T22:49:23.077Z,96195.94
2024-01-17T22:54:24.958Z,96184.13
2024-01-17T22:59:26.790Z,96187.16
2024-01-17T23:04:28.949Z,96183.72
2024-01-17T23:09:31.162Z,96191.59
2024-01-17T23:14:32.961Z,96169.16
2024-01-17T23:19:35.007Z,96184.22
2024-01-17T23:24:37.137Z,96166.16
2024-01-17T23:29:38.939Z,96159.34
2024-01-17T23:34:41.030Z,96147.97
2024-01-17T23:39:42.893Z,96142.06
2024-01-17T23:44:45.879Z,96133.75
2024-01-17T23:49:47.887Z,96129.22
2024-01-17T23:54:50.007Z,96117.69
2024-01-17T23:59:51.784Z,96106.94
